sensor_id;sensor_type;location;lat;lon;timestamp;pressure;altitude;pressure_sealevel;temperature;humidity
70943;BME280;59154;51.970;5.650;2023-02-11T00:00:05;103300;;;8.14144;88.2
70943;BME280;59154;51.970;5.650;2023-02-11T00:05:04;103300;;;8.1211;88.3
70943;BME280;59154;51.970;5.650;2023-02-11T00:10:03;103300;;;8.18213;88.2
70943;BME280;59154;51.970;5.650;2023-02-11T00:15:02;103300;;;8.13127;88.3
70943;BME280;59154;51.970;5.650;2023-02-11T00:20:03;103400;;;8.13636;88.2
70943;BME280;59154;51.970;5.650;2023-02-11T00:25:03;103300;;;8.07533;88.3
70943;BME280;59154;51.970;5.650;2023-02-11T00:30:03;103300;;;8.13636;88.2
70943;BME280;59154;51.970;5.650;2023-02-11T00:35:03;103300;;;8.20756;87.9
70943;BME280;59154;51.970;5.650;2023-02-11T00:40:03;103300;;;8.18213;88.2
70943;BME280;59154;51.970;5.650;2023-02-11T00:45:03;103300;;;8.18721;87.9
70943;BME280;59154;51.970;5.650;2023-02-11T00:50:03;103300;;;8.20756;87.9
70943;BME280;59154;51.970;5.650;2023-02-11T00:55:02;103300;;;8.23298;87.8
70943;BME280;59154;51.970;5.650;2023-02-11T01:00:04;103300;;;8.1923;87.9
70943;BME280;59154;51.970;5.650;2023-02-11T01:05:02;103400;;;8.21773;87.6
70943;BME280;59154;51.970;5.650;2023-02-11T01:10:03;103300;;;8.25841;87.6
70943;BME280;59154;51.970;5.650;2023-02-11T01:15:04;103300;;;8.2279;87.8
70943;BME280;59154;51.970;5.650;2023-02-11T01:20:04;103300;;;8.17196;88.0
70943;BME280;59154;51.970;5.650;2023-02-11T01:25:02;103300;;;8.17704;87.9
70943;BME280;59154;51.970;5.650;2023-02-11T01:30:05;103300;;;8.16179;87.9
70943;BME280;59154;51.970;5.650;2023-02-11T01:35:02;103300;;;8.11602;88.0
70943;BME280;59154;51.970;5.650;2023-02-11T01:40:09;103300;;;8.09568;88.1
70943;BME280;59154;51.970;5.650;2023-02-11T01:45:46;103300;;;8.08042;88.2
70943;BME280;59154;51.970;5.650;2023-02-11T01:50:03;103300;;;8.12619;88.1
70943;BME280;59154;51.970;5.650;2023-02-11T01:55:05;103300;;;8.31435;87.4
70943;BME280;59154;51.970;5.650;2023-02-11T02:00:08;103300;;;8.38555;87.3
70943;BME280;59154;51.970;5.650;2023-02-11T02:05:07;103300;;;8.33978;87.2
70943;BME280;59154;51.970;5.650;2023-02-11T02:10:08;103300;;;8.29909;87.3
70943;BME280;59154;51.970;5.650;2023-02-11T02:15:23;103300;;;8.4364;87.0
70943;BME280;59154;51.970;5.650;2023-02-11T02:25:18;103300;;;8.48217;86.8
70943;BME280;59154;51.970;5.650;2023-02-11T02:30:28;103300;;;8.472;86.9
70943;BME280;59154;51.970;5.650;2023-02-11T02:35:10;103300;;;8.472;86.9
70943;BME280;59154;51.970;5.650;2023-02-11T02:40:06;103300;;;8.472;87.1
70943;BME280;59154;51.970;5.650;2023-02-11T02:45:04;103300;;;8.27367;87.8
70943;BME280;59154;51.970;5.650;2023-02-11T02:50:03;103300;;;8.25841;88.0
70943;BME280;59154;51.970;5.650;2023-02-11T02:55:11;103300;;;8.23807;88.3
70943;BME280;59154;51.970;5.650;2023-02-11T03:00:13;103300;;;8.2635;88.1
70943;BME280;59154;51.970;5.650;2023-02-11T03:05:07;103300;;;8.1567;88.9
70943;BME280;59154;51.970;5.650;2023-02-11T03:10:08;103300;;;8.17196;88.7
70943;BME280;59154;51.970;5.650;2023-02-11T03:15:05;103300;;;8.17196;88.8
70943;BME280;59154;51.970;5.650;2023-02-11T03:20:05;103300;;;8.20756;88.8
70943;BME280;59154;51.970;5.650;2023-02-11T03:25:03;103300;;;8.15162;89.2
70943;BME280;59154;51.970;5.650;2023-02-11T03:30:10;103300;;;8.11602;89.3
70943;BME280;59154;51.970;5.650;2023-02-11T03:35:06;103300;;;8.1567;89.1
70943;BME280;59154;51.970;5.650;2023-02-11T03:40:06;103300;;;8.08042;89.5
70943;BME280;59154;51.970;5.650;2023-02-11T03:45:05;103300;;;8.13636;89.6
70943;BME280;59154;51.970;5.650;2023-02-11T03:50:05;103300;;;8.02448;90.0
70943;BME280;59154;51.970;5.650;2023-02-11T03:55:07;103200;;;8.03465;90.1
70943;BME280;59154;51.970;5.650;2023-02-11T04:00:05;103200;;;8.00922;90.2
70943;BME280;59154;51.970;5.650;2023-02-11T04:05:03;103200;;;7.91768;90.8
70943;BME280;59154;51.970;5.650;2023-02-11T04:10:04;103200;;;7.85666;90.8
70943;BME280;59154;51.970;5.650;2023-02-11T04:15:02;103300;;;7.91768;90.8
70943;BME280;59154;51.970;5.650;2023-02-11T04:20:04;103300;;;7.90243;91.1
70943;BME280;59154;51.970;5.650;2023-02-11T04:25:02;103300;;;7.9482;91.1
70943;BME280;59154;51.970;5.650;2023-02-11T04:30:03;103300;;;7.85666;91.5
70943;BME280;59154;51.970;5.650;2023-02-11T04:35:02;103300;;;7.90751;91.3
70943;BME280;59154;51.970;5.650;2023-02-11T04:40:03;103300;;;7.90751;91.5
70943;BME280;59154;51.970;5.650;2023-02-11T04:45:03;103300;;;8.00414;91.1
70943;BME280;59154;51.970;5.650;2023-02-11T04:50:03;103300;;;7.95837;91.4
70943;BME280;59154;51.970;5.650;2023-02-11T04:55:03;103300;;;8.00922;91.2
70943;BME280;59154;51.970;5.650;2023-02-11T05:00:03;103300;;;7.9838;91.4
70943;BME280;59154;51.970;5.650;2023-02-11T05:05:03;103300;;;8.02448;91.1
70943;BME280;59154;51.970;5.650;2023-02-11T05:10:03;103300;;;8.0855;91.0
70943;BME280;59154;51.970;5.650;2023-02-11T05:15:03;103300;;;8.04991;91.1
70943;BME280;59154;51.970;5.650;2023-02-11T05:25:02;103300;;;8.06516;91.2
70943;BME280;59154;51.970;5.650;2023-02-11T05:30:05;103300;;;8.12619;91.1
70943;BME280;59154;51.970;5.650;2023-02-11T05:35:02;103300;;;8.06516;91.3
70943;BME280;59154;51.970;5.650;2023-02-11T05:40:04;103300;;;8.0855;91.1
70943;BME280;59154;51.970;5.650;2023-02-11T05:45:03;103300;;;8.13636;91.0
70943;BME280;59154;51.970;5.650;2023-02-11T05:50:03;103300;;;8.20756;90.8
70943;BME280;59154;51.970;5.650;2023-02-11T05:55:02;103300;;;8.07533;91.4
70943;BME280;59154;51.970;5.650;2023-02-11T06:00:05;103300;;;8.09568;91.5
70943;BME280;59154;51.970;5.650;2023-02-11T06:05:03;103300;;;8.1211;91.4
70943;BME280;59154;51.970;5.650;2023-02-11T06:10:04;103300;;;8.11093;91.6
70943;BME280;59154;51.970;5.650;2023-02-11T06:15:03;103300;;;8.11093;91.6
70943;BME280;59154;51.970;5.650;2023-02-11T06:20:06;103300;;;8.09059;91.7
70943;BME280;59154;51.970;5.650;2023-02-11T06:25:03;103300;;;8.10585;91.9
70943;BME280;59154;51.970;5.650;2023-02-11T06:30:04;103300;;;8.06516;92.1
70943;BME280;59154;51.970;5.650;2023-02-11T06:35:03;103300;;;8.12619;92.0
70943;BME280;59154;51.970;5.650;2023-02-11T06:40:04;103300;;;8.02448;92.6
70943;BME280;59154;51.970;5.650;2023-02-11T06:45:02;103300;;;7.9838;93.4
70943;BME280;59154;51.970;5.650;2023-02-11T06:50:03;103300;;;8.06516;93.0
70943;BME280;59154;51.970;5.650;2023-02-11T06:55:02;103300;;;8.05499;93.1
70943;BME280;59154;51.970;5.650;2023-02-11T07:00:04;103300;;;8.09568;92.6
70943;BME280;59154;51.970;5.650;2023-02-11T07:05:04;103300;;;8.00414;93.2
70943;BME280;59154;51.970;5.650;2023-02-11T07:10:04;103300;;;8.00414;93.1
70943;BME280;59154;51.970;5.650;2023-02-11T07:15:02;103300;;;8.01939;93.0
70943;BME280;59154;51.970;5.650;2023-02-11T07:20:04;103300;;;8.11602;92.8
70943;BME280;59154;51.970;5.650;2023-02-11T07:25:03;103300;;;8.2279;92.3
70943;BME280;59154;51.970;5.650;2023-02-11T07:30:03;103300;;;8.17704;92.7
70943;BME280;59154;51.970;5.650;2023-02-11T07:35:03;103300;;;8.21773;92.7
70943;BME280;59154;51.970;5.650;2023-02-11T07:40:04;103300;;;8.19738;92.7
70943;BME280;59154;51.970;5.650;2023-02-11T07:45:03;103300;;;8.32452;92.6
70943;BME280;59154;51.970;5.650;2023-02-11T07:50:03;103300;;;8.31944;92.5
70943;BME280;59154;51.970;5.650;2023-02-11T07:55:03;103300;;;8.35503;92.7
70943;BME280;59154;51.970;5.650;2023-02-11T08:00:04;103300;;;8.30926;92.6
70943;BME280;59154;51.970;5.650;2023-02-11T08:05:02;103300;;;8.47709;92.4
70943;BME280;59154;51.970;5.650;2023-02-11T08:10:03;103300;;;8.48217;92.3
70943;BME280;59154;51.970;5.650;2023-02-11T08:15:02;103300;;;8.50251;92.2
70943;BME280;59154;51.970;5.650;2023-02-11T08:20:03;103300;;;8.61439;91.9
70943;BME280;59154;51.970;5.650;2023-02-11T08:25:03;103300;;;8.72627;91.7
70943;BME280;59154;51.970;5.650;2023-02-11T08:30:04;103300;;;8.8229;91.5
70943;BME280;59154;51.970;5.650;2023-02-11T08:35:03;103300;;;8.78221;91.7
70943;BME280;59154;51.970;5.650;2023-02-11T08:40:04;103300;;;8.82798;91.7
70943;BME280;59154;51.970;5.650;2023-02-11T08:45:03;103300;;;8.93986;91.6
70943;BME280;59154;51.970;5.650;2023-02-11T08:50:04;103300;;;8.8941;92.0
70943;BME280;59154;51.970;5.650;2023-02-11T08:55:03;103300;;;8.91444;92.1
70943;BME280;59154;51.970;5.650;2023-02-11T09:00:04;103300;;;8.84833;92.6
70943;BME280;59154;51.970;5.650;2023-02-11T09:05:03;103400;;;9.31619;91.0
70943;BME280;59154;51.970;5.650;2023-02-11T09:10:03;103400;;;9.31619;91.2
70943;BME280;59154;51.970;5.650;2023-02-11T09:15:02;103400;;;9.39248;90.9
70943;BME280;59154;51.970;5.650;2023-02-11T09:20:04;103400;;;9.43825;91.3
70943;BME280;59154;51.970;5.650;2023-02-11T09:25:02;103400;;;9.49927;91.1
70943;BME280;59154;51.970;5.650;2023-02-11T09:30:04;103400;;;9.59081;90.7
70943;BME280;59154;51.970;5.650;2023-02-11T09:35:03;103400;;;9.71795;90.2
70943;BME280;59154;51.970;5.650;2023-02-11T09:40:05;103400;;;9.69252;90.8
70943;BME280;59154;51.970;5.650;2023-02-11T09:45:04;103400;;;9.73829;90.3
70943;BME280;59154;51.970;5.650;2023-02-11T09:50:06;103400;;;9.8756;89.9
70943;BME280;59154;51.970;5.650;2023-02-11T09:55:08;103400;;;9.83492;90.0
70943;BME280;59154;51.970;5.650;2023-02-11T10:00:19;103400;;;9.85526;89.9
70943;BME280;59154;51.970;5.650;2023-02-11T10:05:15;103400;;;9.79932;90.2
70943;BME280;59154;51.970;5.650;2023-02-11T10:10:14;103400;;;9.90103;90.2
70943;BME280;59154;51.970;5.650;2023-02-11T10:15:13;103400;;;9.93663;89.8
70943;BME280;59154;51.970;5.650;2023-02-11T10:20:15;103400;;;9.85526;90.2
70943;BME280;59154;51.970;5.650;2023-02-11T10:25:16;103400;;;10.11971;89.4
70943;BME280;59154;51.970;5.650;2023-02-11T10:30:07;103400;;;10.20616;89.4
70943;BME280;59154;51.970;5.650;2023-02-11T10:35:11;103500;;;10.34856;88.7
70943;BME280;59154;51.970;5.650;2023-02-11T10:40:05;103500;;;10.36382;88.9
70943;BME280;59154;51.970;5.650;2023-02-11T10:45:04;103500;;;10.65878;87.9
70943;BME280;59154;51.970;5.650;2023-02-11T10:50:18;103500;;;10.71981;88.2
70943;BME280;59154;51.970;5.650;2023-02-11T10:55:05;103500;;;10.88763;87.7
70943;BME280;59154;51.970;5.650;2023-02-11T11:00:18;103500;;;10.969;87.1
70943;BME280;59154;51.970;5.650;2023-02-11T11:05:06;103500;;;11.24363;86.0
70943;BME280;59154;51.970;5.650;2023-02-11T11:10:05;103500;;;11.16734;86.2
70943;BME280;59154;51.970;5.650;2023-02-11T11:15:17;103500;;;10.73507;87.8
70943;BME280;59154;51.970;5.650;2023-02-11T11:20:15;103500;;;10.90798;87.5
70943;BME280;59154;51.970;5.650;2023-02-11T11:25:02;103500;;;10.85203;87.5
70943;BME280;59154;51.970;5.650;2023-02-11T11:30:04;103500;;;10.969;87.1
70943;BME280;59154;51.970;5.650;2023-02-11T11:35:06;103500;;;11.20803;86.5
70943;BME280;59154;51.970;5.650;2023-02-11T11:40:08;103500;;;11.35043;86.0
70943;BME280;59154;51.970;5.650;2023-02-11T11:45:21;103500;;;11.30974;85.5
70943;BME280;59154;51.970;5.650;2023-02-11T11:50:21;103500;;;11.15717;86.3
70943;BME280;59154;51.970;5.650;2023-02-11T11:55:12;103500;;;11.35043;85.5
70943;BME280;59154;51.970;5.650;2023-02-11T12:00:04;103500;;;11.48265;85.2
70943;BME280;59154;51.970;5.650;2023-02-11T12:05:05;103500;;;11.72676;84.7
70943;BME280;59154;51.970;5.650;2023-02-11T12:10:24;103400;;;11.80813;84.2
70943;BME280;59154;51.970;5.650;2023-02-11T12:15:14;103400;;;11.82848;84.4
70943;BME280;59154;51.970;5.650;2023-02-11T12:20:26;103500;;;11.77762;83.9
70943;BME280;59154;51.970;5.650;2023-02-11T12:25:18;103500;;;11.61997;84.6
70943;BME280;59154;51.970;5.650;2023-02-11T12:30:12;103400;;;11.49282;84.8
70943;BME280;59154;51.970;5.650;2023-02-11T12:35:18;103400;;;11.46231;85.0
70943;BME280;59154;51.970;5.650;2023-02-11T12:40:13;103400;;;11.59454;84.6
70943;BME280;59154;51.970;5.650;2023-02-11T12:45:16;103400;;;11.77762;84.5
70943;BME280;59154;51.970;5.650;2023-02-11T12:50:09;103400;;;11.95053;83.6
70943;BME280;59154;51.970;5.650;2023-02-11T12:55:08;103400;;;11.84882;83.1
70943;BME280;59154;51.970;5.650;2023-02-11T13:00:06;103400;;;12.09293;82.8
70943;BME280;59154;51.970;5.650;2023-02-11T13:05:18;103400;;;12.18447;82.3
70943;BME280;59154;51.970;5.650;2023-02-11T13:10:13;103400;;;12.11328;82.5
70943;BME280;59154;51.970;5.650;2023-02-11T13:15:06;103400;;;12.22516;82.7
70943;BME280;59154;51.970;5.650;2023-02-11T13:20:14;103400;;;12.2811;82.3
70943;BME280;59154;51.970;5.650;2023-02-11T13:25:05;103400;;;12.32687;82.4
70943;BME280;59154;51.970;5.650;2023-02-11T13:30:23;103400;;;12.23533;81.9
70943;BME280;59154;51.970;5.650;2023-02-11T13:35:15;103400;;;12.0319;82.7
70943;BME280;59154;51.970;5.650;2023-02-11T13:40:05;103400;;;12.43367;81.9
70943;BME280;59154;51.970;5.650;2023-02-11T13:45:16;103400;;;12.20482;81.8
70943;BME280;59154;51.970;5.650;2023-02-11T13:50:05;103400;;;12.30653;81.8
70943;BME280;59154;51.970;5.650;2023-02-11T13:55:08;103400;;;12.46419;81.6
70943;BME280;59154;51.970;5.650;2023-02-11T14:00:43;103400;;;12.39807;81.7
70943;BME280;59154;51.970;5.650;2023-02-11T14:05:20;103400;;;12.4235;81.3
70943;BME280;59154;51.970;5.650;2023-02-11T14:10:03;103400;;;12.33705;81.6
70943;BME280;59154;51.970;5.650;2023-02-11T14:15:24;103400;;;12.35739;81.0
70943;BME280;59154;51.970;5.650;2023-02-11T14:20:32;103400;;;12.42859;81.3
70943;BME280;59154;51.970;5.650;2023-02-11T14:25:23;103400;;;12.46419;80.9
70943;BME280;59154;51.970;5.650;2023-02-11T14:30:29;103400;;;12.59642;80.8
70943;BME280;59154;51.970;5.650;2023-02-11T14:35:08;103400;;;12.55573;80.9
70943;BME280;59154;51.970;5.650;2023-02-11T14:40:12;103400;;;12.54556;80.8
70943;BME280;59154;51.970;5.650;2023-02-11T14:45:05;103400;;;12.43367;81.0
70943;BME280;59154;51.970;5.650;2023-02-11T14:50:04;103400;;;12.44893;81.1
70943;BME280;59154;51.970;5.650;2023-02-11T14:55:13;103400;;;12.33705;80.8
70943;BME280;59154;51.970;5.650;2023-02-11T15:00:13;103400;;;12.48453;80.7
70943;BME280;59154;51.970;5.650;2023-02-11T15:05:20;103400;;;12.2455;80.4
70943;BME280;59154;51.970;5.650;2023-02-11T15:10:03;103400;;;12.25059;80.2
70943;BME280;59154;51.970;5.650;2023-02-11T15:15:03;103400;;;12.27093;80.2
70943;BME280;59154;51.970;5.650;2023-02-11T15:20:19;103400;;;12.14888;79.9
70943;BME280;59154;51.970;5.650;2023-02-11T15:25:09;103500;;;11.95053;79.9
70943;BME280;59154;51.970;5.650;2023-02-11T15:30:21;103500;;;11.92002;79.9
70943;BME280;59154;51.970;5.650;2023-02-11T15:35:04;103500;;;12.06242;80.3
70943;BME280;59154;51.970;5.650;2023-02-11T15:40:10;103500;;;11.97596;80.4
70943;BME280;59154;51.970;5.650;2023-02-11T15:45:20;103500;;;11.90985;80.3
70943;BME280;59154;51.970;5.650;2023-02-11T15:50:04;103500;;;11.82339;80.6
70943;BME280;59154;51.970;5.650;2023-02-11T15:55:02;103500;;;11.9607;80.9
70943;BME280;59154;51.970;5.650;2023-02-11T16:00:04;103500;;;11.89968;81.1
70943;BME280;59154;51.970;5.650;2023-02-11T16:05:05;103500;;;11.76745;81.4
70943;BME280;59154;51.970;5.650;2023-02-11T16:10:03;103500;;;11.63522;81.6
70943;BME280;59154;51.970;5.650;2023-02-11T16:15:29;103500;;;11.56402;81.8
70943;BME280;59154;51.970;5.650;2023-02-11T16:20:05;103500;;;11.48265;81.8
70943;BME280;59154;51.970;5.650;2023-02-11T16:25:02;103500;;;11.25888;82.5
70943;BME280;59154;51.970;5.650;2023-02-11T16:30:04;103500;;;11.26906;82.6
70943;BME280;59154;51.970;5.650;2023-02-11T16:35:06;103500;;;11.18769;82.7
70943;BME280;59154;51.970;5.650;2023-02-11T16:40:03;103500;;;11.09614;82.8
70943;BME280;59154;51.970;5.650;2023-02-11T16:45:03;103500;;;10.84186;83.8
70943;BME280;59154;51.970;5.650;2023-02-11T16:50:03;103500;;;10.87746;83.7
70943;BME280;59154;51.970;5.650;2023-02-11T16:55:03;103500;;;10.78084;83.9
70943;BME280;59154;51.970;5.650;2023-02-11T17:00:04;103500;;;10.85203;83.7
70943;BME280;59154;51.970;5.650;2023-02-11T17:05:05;103500;;;10.74524;84.2
70943;BME280;59154;51.970;5.650;2023-02-11T17:10:06;103500;;;10.6181;84.5
70943;BME280;59154;51.970;5.650;2023-02-11T17:15:03;103500;;;10.67404;84.4
70943;BME280;59154;51.970;5.650;2023-02-11T17:20:05;103500;;;10.55707;84.9
70943;BME280;59154;51.970;5.650;2023-02-11T17:25:02;103500;;;10.4045;85.5
70943;BME280;59154;51.970;5.650;2023-02-11T17:30:03;103500;;;10.34856;85.7
70943;BME280;59154;51.970;5.650;2023-02-11T17:35:03;103500;;;10.28245;86.0
70943;BME280;59154;51.970;5.650;2023-02-11T17:40:03;103600;;;10.27228;86.1
70943;BME280;59154;51.970;5.650;2023-02-11T17:45:02;103600;;;10.24176;86.3
70943;BME280;59154;51.970;5.650;2023-02-11T17:50:03;103600;;;10.18074;86.5
70943;BME280;59154;51.970;5.650;2023-02-11T17:55:03;103600;;;10.14005;86.9
70943;BME280;59154;51.970;5.650;2023-02-11T18:00:04;103600;;;10.20108;86.6
70943;BME280;59154;51.970;5.650;2023-02-11T18:05:02;103600;;;10.06377;87.1
70943;BME280;59154;51.970;5.650;2023-02-11T18:10:04;103600;;;10.18582;86.7
70943;BME280;59154;51.970;5.650;2023-02-11T18:15:02;103600;;;10.14005;86.7
70943;BME280;59154;51.970;5.650;2023-02-11T18:20:04;103600;;;10.14005;86.6
70943;BME280;59154;51.970;5.650;2023-02-11T18:25:03;103600;;;10.03834;87.0
70943;BME280;59154;51.970;5.650;2023-02-11T18:30:04;103600;;;10.00783;87.1
70943;BME280;59154;51.970;5.650;2023-02-11T18:35:02;103600;;;9.90612;87.3
70943;BME280;59154;51.970;5.650;2023-02-11T18:40:04;103600;;;9.90612;87.5
70943;BME280;59154;51.970;5.650;2023-02-11T18:45:04;103600;;;9.89086;87.3
70943;BME280;59154;51.970;5.650;2023-02-11T18:50:05;103600;;;9.89594;87.3
70943;BME280;59154;51.970;5.650;2023-02-11T18:55:02;103600;;;9.97731;87.2
70943;BME280;59154;51.970;5.650;2023-02-11T19:00:04;103600;;;9.97223;87.2
70943;BME280;59154;51.970;5.650;2023-02-11T19:05:02;103600;;;10.0892;86.8
70943;BME280;59154;51.970;5.650;2023-02-11T19:10:04;103600;;;10.03325;86.9
70943;BME280;59154;51.970;5.650;2023-02-11T19:15:02;103600;;;10.04851;87.1
70943;BME280;59154;51.970;5.650;2023-02-11T19:20:05;103600;;;9.99766;87.1
70943;BME280;59154;51.970;5.650;2023-02-11T19:25:03;103600;;;10.04851;86.7
70943;BME280;59154;51.970;5.650;2023-02-11T19:30:03;103600;;;10.16039;86.6
70943;BME280;59154;51.970;5.650;2023-02-11T19:35:02;103600;;;10.17565;86.5
70943;BME280;59154;51.970;5.650;2023-02-11T19:40:05;103600;;;10.18074;86.7
70943;BME280;59154;51.970;5.650;2023-02-11T19:45:03;103600;;;10.24685;86.4
70943;BME280;59154;51.970;5.650;2023-02-11T19:50:03;103700;;;10.27736;86.4
70943;BME280;59154;51.970;5.650;2023-02-11T19:55:03;103700;;;10.18074;86.5
70943;BME280;59154;51.970;5.650;2023-02-11T20:00:04;103700;;;10.15022;86.8
70943;BME280;59154;51.970;5.650;2023-02-11T20:05:02;103700;;;10.12988;86.7
70943;BME280;59154;51.970;5.650;2023-02-11T20:10:03;103700;;;10.10954;86.6
70943;BME280;59154;51.970;5.650;2023-02-11T20:15:02;103700;;;10.19599;86.4
70943;BME280;59154;51.970;5.650;2023-02-11T20:20:04;103700;;;10.27736;86.1
70943;BME280;59154;51.970;5.650;2023-02-11T20:25:02;103700;;;10.19599;85.9
70943;BME280;59154;51.970;5.650;2023-02-11T20:30:04;103700;;;10.26211;85.9
70943;BME280;59154;51.970;5.650;2023-02-11T20:35:03;103700;;;10.28245;85.6
70943;BME280;59154;51.970;5.650;2023-02-11T20:40:04;103700;;;10.26211;85.7
70943;BME280;59154;51.970;5.650;2023-02-11T20:45:03;103700;;;10.32313;85.3
70943;BME280;59154;51.970;5.650;2023-02-11T20:50:03;103700;;;10.28753;85.3
70943;BME280;59154;51.970;5.650;2023-02-11T20:55:03;103700;;;10.27736;85.3
70943;BME280;59154;51.970;5.650;2023-02-11T21:00:03;103700;;;10.24685;85.3
70943;BME280;59154;51.970;5.650;2023-02-11T21:05:03;103700;;;10.32313;85.0
70943;BME280;59154;51.970;5.650;2023-02-11T21:10:03;103700;;;10.30279;84.9
70943;BME280;59154;51.970;5.650;2023-02-11T21:15:03;103700;;;10.27736;84.9
70943;BME280;59154;51.970;5.650;2023-02-11T21:20:03;103700;;;10.19091;85.0
70943;BME280;59154;51.970;5.650;2023-02-11T21:25:03;103700;;;10.23159;85.1
70943;BME280;59154;51.970;5.650;2023-02-11T21:30:03;103700;;;10.19091;85.1
70943;BME280;59154;51.970;5.650;2023-02-11T21:35:03;103700;;;10.22142;85.0
70943;BME280;59154;51.970;5.650;2023-02-11T21:40:04;103700;;;10.22651;84.9
70943;BME280;59154;51.970;5.650;2023-02-11T21:45:03;103700;;;10.31296;84.7
70943;BME280;59154;51.970;5.650;2023-02-11T21:50:03;103700;;;10.32313;84.5
70943;BME280;59154;51.970;5.650;2023-02-11T21:55:03;103700;;;10.30279;84.6
70943;BME280;59154;51.970;5.650;2023-02-11T22:00:05;103800;;;10.33839;84.6
70943;BME280;59154;51.970;5.650;2023-02-11T22:05:02;103800;;;10.43502;84.1
70943;BME280;59154;51.970;5.650;2023-02-11T22:10:03;103800;;;10.38924;84.3
70943;BME280;59154;51.970;5.650;2023-02-11T22:15:03;103800;;;10.3333;84.4
70943;BME280;59154;51.970;5.650;2023-02-11T22:20:05;103800;;;10.31805;84.3
70943;BME280;59154;51.970;5.650;2023-02-11T22:25:02;103800;;;10.28245;84.6
70943;BME280;59154;51.970;5.650;2023-02-11T22:30:04;103800;;;10.28753;84.7
70943;BME280;59154;51.970;5.650;2023-02-11T22:35:02;103800;;;10.3333;84.4
70943;BME280;59154;51.970;5.650;2023-02-11T22:40:04;103800;;;10.32313;84.4
70943;BME280;59154;51.970;5.650;2023-02-11T22:45:02;103800;;;10.29262;84.7
70943;BME280;59154;51.970;5.650;2023-02-11T22:50:03;103800;;;10.28753;84.4
70943;BME280;59154;51.970;5.650;2023-02-11T22:55:03;103800;;;10.26211;84.4
70943;BME280;59154;51.970;5.650;2023-02-11T23:00:05;103800;;;10.26719;84.5
70943;BME280;59154;51.970;5.650;2023-02-11T23:05:02;103800;;;10.11971;84.9
70943;BME280;59154;51.970;5.650;2023-02-11T23:10:03;103800;;;10.16039;85.0
70943;BME280;59154;51.970;5.650;2023-02-11T23:15:02;103800;;;10.19091;84.7
70943;BME280;59154;51.970;5.650;2023-02-11T23:20:04;103800;;;10.18074;84.7
70943;BME280;59154;51.970;5.650;2023-02-11T23:25:02;103800;;;10.25702;84.4
70943;BME280;59154;51.970;5.650;2023-02-11T23:30:04;103800;;;10.2977;84.4
70943;BME280;59154;51.970;5.650;2023-02-11T23:35:02;103800;;;10.30788;84.2
70943;BME280;59154;51.970;5.650;2023-02-11T23:40:04;103800;;;10.27228;84.3
70943;BME280;59154;51.970;5.650;2023-02-11T23:45:02;103800;;;10.21634;84.3
70943;BME280;59154;51.970;5.650;2023-02-11T23:50:03;103800;;;10.04851;84.9
70943;BME280;59154;51.970;5.650;2023-02-11T23:55:03;103800;;;10.018;84.9
